National Weather Service United States Department of Commerce

Major Storm Arriving Into The Western U.S.

A major Pacific storm system will arrive into the Pacific Northwest and produce locally heavy rain, heavy mountain snow, gusty winds and a slew of marine hazards. This significant storm will dig down the West Coast over the weekend into the Southwestern U.S. For Saturday and Sunday, expect heavy to excessive rainfall along the California coast and widespread heavy mountain snow across the West. Read More >

                                       ZTL Airspace Summary / KATL TAF                    For ATC Planning Purposes Only
ZTL Airspace Summary:
 

Updated:  
 

Hartsfield-Jackson Atlanta International Airport Terminal Aerodrome Forecast:
 
 

 

ATL METAR:  
 

Go to KATL TAF TDA
Go to KATL TAF TDA

 
ATL TRACON HAZARDS
ATL TRACON: SFC-14000
AVG CIG BASE WHERE REPORTED BLW 10000FT: NONE REPORTED
LOWEST REPORTED CIG: NONE REPORTED
LOWEST REPORTED FLIGHT CAT: LIFR
METARS:
KPUJ 301435Z AUTO 17004KT 7SM SCT006 25/25 A3009 RMK AO2
KHMP 301435Z AUTO 00000KT 10SM SCT014 27/22 A3012 RMK AO2 T02660221
KCVC 301435Z AUTO 32003KT 10SM OVC008 24/22 A3007 RMK AO2
KD73 301415Z AUTO 00000KT 10SM OVC007 23/23 A3009 RMK AO2 T02340228
KLZU 301356Z 00000KT 10SM OVC007 23/22 A3009 RMK AO2 SLP188 T02330217
K6A2 301435Z AUTO 00000KT 10SM OVC007 24/23 A3009 RMK AO2
KATL 301352Z 13004KT 10SM FEW012 SCT016 SCT200 SCT250 25/22 A3007 RMK AO2 SLP172 T02500217
KVPC 301435Z AUTO 18004KT 10SM CLR 28/23 A3007 RMK AO2
KFFC 301353Z AUTO 00000KT 10SM OVC011 26/22 A3007 RMK AO2 SLP177 T02610217
KRYY 301350Z 00000KT 10SM SCT013 26/22 A3008 RMK AO2 SLP176 T02560217 $
KFTY 301353Z VRB03KT 10SM SCT010 24/22 A3007 RMK AO2 SLP174 T02440217
KCTJ 301415Z AUTO 00000KT 10SM OVC003 23/22 A3013 RMK AO2 T02250224
KPDK 301437Z 00000KT 10SM SCT012 26/22 A3008 RMK AO2 T02560217
KCCO 301435Z AUTO 00000KT 10SM OVC003 23/23 A3009 RMK AO2 T02340229
KMGE 301429Z 14002KT 10SM FEW010 FEW020 SCT060 BKN250 26/22 A3007 RMK AO2A $

ATL TRACON HAZARD

Forecast Surface Map Loop / Collaborative Convective Forecast Product / Vertical Wind Profile
Weather Map

 

AIRMETs & SIGMETS/ Southeast Radar loop / Satellite Image (click on image to enlarge)
Weather Map Southeast Radar Loop

satellite